Time;durP1;ratioP1;P1;durP2;ratioP2;P2;SDS_P1;SDS_P2;PMS_P1;PMS_P2;Temp;Humidity;BMP_temperature;BMP_pressure;BME280_temperature;BME280_humidity;BME280_pressure;Samples;Min_cycle;Max_cycle;Signal;HPM_P1;HPM_P2
2021/11/23 00:00:55;;;;;;;7.10;4.28;;;;;;;-0.74;92.20;100978.09;1749721;81;21414;-44
2021/11/23 00:03:22;;;;;;;5.08;4.20;;;;;;;-0.73;92.23;100980.71;1750059;82;20936;-44
2021/11/23 00:05:49;;;;;;;6.15;4.30;;;;;;;-0.72;92.27;100979.02;1738642;81;21976;-44
2021/11/23 00:08:17;;;;;;;8.90;4.70;;;;;;;-0.70;92.36;100985.45;1735910;82;20933;-42
2021/11/23 00:10:46;;;;;;;5.47;3.85;;;;;;;-0.70;92.39;100995.20;1736091;82;20854;-42
2021/11/23 00:13:13;;;;;;;7.10;4.87;;;;;;;-0.71;92.47;100996.01;1735942;82;20984;-41
2021/11/23 00:15:40;;;;;;;8.90;5.00;;;;;;;-0.70;92.56;100986.30;1736029;82;21483;-41
2021/11/23 00:18:11;;;;;;;8.85;4.00;;;;;;;-0.69;92.66;100988.02;1735906;82;21169;-41
2021/11/23 00:20:40;;;;;;;4.87;3.83;;;;;;;-0.68;92.67;100977.46;1735965;82;20972;-44
2021/11/23 00:23:07;;;;;;;8.53;3.83;;;;;;;-0.66;92.72;100984.31;1735747;82;20984;-42
2021/11/23 00:25:34;;;;;;;8.40;4.60;;;;;;;-0.65;92.81;100984.77;1735859;81;20894;-42
2021/11/23 00:28:01;;;;;;;4.72;4.08;;;;;;;-0.66;92.95;100985.59;1736012;82;20885;-41
2021/11/23 00:30:30;;;;;;;7.37;4.80;;;;;;;-0.65;93.01;100988.59;1735999;82;21148;-41
2021/11/23 00:32:57;;;;;;;6.87;4.15;;;;;;;-0.65;93.00;100986.47;1715133;82;20996;-44
2021/11/23 00:35:26;;;;;;;9.85;5.17;;;;;;;-0.64;93.07;100992.02;1735880;82;21352;-42
2021/11/23 00:37:53;;;;;;;5.22;4.28;;;;;;;-0.64;93.13;100983.11;1735973;82;20974;-42
2021/11/23 00:40:20;;;;;;;10.28;4.25;;;;;;;-0.65;93.13;100975.03;1736016;82;20973;-42
2021/11/23 00:42:48;;;;;;;5.58;4.17;;;;;;;-0.66;93.13;100977.11;1735993;82;22337;-42
2021/11/23 00:45:16;;;;;;;12.85;4.25;;;;;;;-0.67;93.12;100971.14;1735878;82;20965;-42
2021/11/23 00:47:42;;;;;;;6.78;4.75;;;;;;;-0.68;93.16;100968.56;1736148;82;20898;-42
2021/11/23 00:50:09;;;;;;;7.17;4.45;;;;;;;-0.70;93.24;100968.50;1735883;82;20976;-42
2021/11/23 00:52:37;;;;;;;6.25;4.45;;;;;;;-0.71;93.33;100966.77;1736151;82;21008;-42
2021/11/23 00:55:05;;;;;;;7.05;4.20;;;;;;;-0.71;93.47;100974.81;1736076;82;21132;-43
2021/11/23 00:57:32;;;;;;;7.17;4.70;;;;;;;-0.70;93.52;100986.30;1735883;82;20881;-42
2021/11/23 00:59:59;;;;;;;8.03;4.67;;;;;;;-0.71;93.51;100979.48;1736095;82;20918;-42
2021/11/23 01:02:26;;;;;;;7.62;4.35;;;;;;;-0.72;93.63;100980.29;1736356;82;21641;-42
2021/11/23 01:04:54;;;;;;;8.43;4.83;;;;;;;-0.73;93.79;100982.37;1735721;81;21033;-42
2021/11/23 01:07:21;;;;;;;8.40;4.10;;;;;;;-0.70;93.87;100976.55;1714910;82;21101;-42
2021/11/23 01:09:48;;;;;;;6.47;4.55;;;;;;;-0.70;93.88;100981.20;1735704;81;20917;-42
2021/11/23 01:12:15;;;;;;;5.87;4.10;;;;;;;-0.70;93.92;100971.03;1735939;82;20980;-42
2021/11/23 01:14:41;;;;;;;8.20;4.50;;;;;;;-0.70;93.99;100971.03;1735986;82;20976;-42
2021/11/23 01:17:09;;;;;;;8.25;4.78;;;;;;;-0.69;94.01;100975.73;1736037;82;21000;-43
2021/11/23 01:19:36;;;;;;;5.37;4.45;;;;;;;-0.68;94.00;100960.94;1736006;82;21182;-42
2021/11/23 01:22:03;;;;;;;7.75;4.47;;;;;;;-0.68;93.88;100966.88;1715039;82;20897;-42
2021/11/23 01:24:31;;;;;;;6.15;4.33;;;;;;;-0.68;93.88;100966.02;1736245;82;21459;-42
2021/11/23 01:26:58;;;;;;;6.10;4.37;;;;;;;-0.69;93.86;100975.73;1735921;82;20984;-42
2021/11/23 01:29:25;;;;;;;6.58;3.87;;;;;;;-0.71;93.94;100970.58;1736002;82;21537;-42
2021/11/23 01:31:51;;;;;;;6.15;4.35;;;;;;;-0.70;93.95;100972.31;1735879;82;21455;-42
2021/11/23 01:34:19;;;;;;;5.80;4.58;;;;;;;-0.68;93.96;100975.77;1735966;82;20925;-43
2021/11/23 01:36:47;;;;;;;5.47;4.50;;;;;;;-0.67;94.09;100976.66;1735956;82;20933;-42
2021/11/23 01:39:14;;;;;;;5.87;4.08;;;;;;;-0.67;94.21;100971.14;1735967;82;20945;-42
2021/11/23 01:41:41;;;;;;;10.80;4.20;;;;;;;-0.67;94.32;100968.60;1735892;81;20905;-42
2021/11/23 01:44:09;;;;;;;6.62;3.98;;;;;;;-0.64;94.40;100971.67;1735788;82;21088;-42
2021/11/23 01:46:36;;;;;;;7.55;4.30;;;;;;;-0.63;94.48;100970.86;1735981;82;20877;-42
2021/11/23 01:49:03;;;;;;;6.75;4.92;;;;;;;-0.62;94.58;100972.20;1735816;82;21416;-42
2021/11/23 01:51:30;;;;;;;6.10;4.30;;;;;;;-0.60;94.58;100973.51;1735917;82;20933;-42
2021/11/23 01:53:57;;;;;;;5.80;4.33;;;;;;;-0.57;94.53;100979.13;1735952;82;21609;-43
2021/11/23 01:56:23;;;;;;;6.47;4.42;;;;;;;-0.55;94.41;100982.58;1735957;82;21307;-43
2021/11/23 01:58:51;;;;;;;7.37;4.40;;;;;;;-0.54;94.34;100988.98;1735858;82;21471;-44
2021/11/23 02:01:17;;;;;;;9.53;5.40;;;;;;;-0.51;94.29;100981.88;1735961;82;21503;-44
2021/11/23 02:03:44;;;;;;;7.70;4.80;;;;;;;-0.50;94.16;100982.33;1735860;82;20898;-44
2021/11/23 02:06:11;;;;;;;7.65;4.47;;;;;;;-0.50;94.04;100982.33;1745434;81;21015;-44
2021/11/23 02:08:38;;;;;;;8.48;4.78;;;;;;;-0.48;93.95;100984.52;1750050;82;21804;-42
2021/11/23 02:11:05;;;;;;;8.75;4.85;;;;;;;-0.48;93.88;100984.13;1749829;82;20976;-44
2021/11/23 02:13:32;;;;;;;7.33;5.05;;;;;;;-0.48;93.84;100984.52;1749974;82;20932;-42
2021/11/23 02:15:59;;;;;;;7.28;4.92;;;;;;;-0.47;93.79;100987.52;1698448;82;20893;-42
2021/11/23 02:18:27;;;;;;;7.45;5.10;;;;;;;-0.46;93.72;101000.70;1750213;82;20952;-42
2021/11/23 02:20:55;;;;;;;13.83;4.97;;;;;;;-0.46;93.65;100998.16;1749858;82;21125;-42
2021/11/23 02:23:22;;;;;;;13.95;5.40;;;;;;;-0.46;93.60;101003.25;1749704;82;21022;-43
2021/11/23 02:25:49;;;;;;;10.88;5.40;;;;;;;-0.47;93.55;101001.52;1750018;82;21415;-43
2021/11/23 02:28:16;;;;;;;9.40;4.55;;;;;;;-0.47;93.51;100999.86;1749988;82;21475;-44
2021/11/23 02:30:51;;;;;;;7.12;4.47;;;;;;;-0.45;93.40;101002.05;1750089;82;20936;-44
2021/11/23 02:33:20;;;;;;;7.92;4.58;;;;;;;-0.44;93.34;101007.98;1721993;82;21063;-43
2021/11/23 02:35:47;;;;;;;11.83;5.00;;;;;;;-0.45;93.35;101002.05;1749999;82;20928;-43
2021/11/23 02:38:14;;;;;;;8.40;5.10;;;;;;;-0.46;93.31;101007.06;1750056;82;20920;-44
2021/11/23 02:40:41;;;;;;;6.97;4.85;;;;;;;-0.45;93.32;101009.67;1749926;81;20896;-44
2021/11/23 02:43:08;;;;;;;11.18;4.33;;;;;;;-0.43;93.31;101012.26;1750077;82;20980;-44
2021/11/23 02:45:35;;;;;;;6.95;4.25;;;;;;;-0.42;93.32;101012.72;1750046;82;21140;-43
2021/11/23 02:48:02;;;;;;;5.95;3.90;;;;;;;-0.41;93.27;101011.05;1750035;82;20885;-44
2021/11/23 02:50:29;;;;;;;7.00;4.58;;;;;;;-0.40;93.20;101005.15;1750118;80;20952;-43
2021/11/23 02:52:56;;;;;;;6.83;4.47;;;;;;;-0.38;93.15;101010.77;1750062;82;20976;-44
2021/11/23 02:55:26;;;;;;;5.35;4.37;;;;;;;-0.35;93.12;101013.41;1750027;82;20944;-43
2021/11/23 02:57:53;;;;;;;5.90;4.45;;;;;;;-0.32;93.05;101011.37;1749922;82;21090;-42
2021/11/23 03:00:26;;;;;;;4.72;4.33;;;;;;;-0.30;92.95;101009.34;1749987;82;20884;-44
2021/11/23 03:02:53;;;;;;;6.45;4.65;;;;;;;-0.29;92.82;101011.47;1750083;82;20932;-43
2021/11/23 03:05:22;;;;;;;6.22;4.22;;;;;;;-0.26;92.71;101019.63;1723977;81;21541;-44
2021/11/23 03:07:51;;;;;;;5.62;3.70;;;;;;;-0.27;92.58;101022.56;1757804;81;22123;-44
2021/11/23 03:10:19;;;;;;;6.90;4.25;;;;;;;-0.26;92.48;101020.91;1757700;81;21785;-44
2021/11/23 03:12:51;;;;;;;7.80;4.45;;;;;;;-0.27;92.41;101019.17;1729891;81;20876;-44
2021/11/23 03:15:20;;;;;;;4.17;3.77;;;;;;;-0.26;92.36;101019.63;1757716;81;21513;-44
2021/11/23 03:17:48;;;;;;;6.00;4.42;;;;;;;-0.25;92.27;101023.91;1757776;81;20956;-43
2021/11/23 03:20:18;;;;;;;7.05;5.15;;;;;;;-0.25;92.31;101023.91;1757835;81;20931;-43
2021/11/23 03:22:46;;;;;;;6.83;4.35;;;;;;;-0.24;92.28;101018.00;1757946;81;20955;-44
2021/11/23 03:25:14;;;;;;;5.90;3.52;;;;;;;-0.24;92.22;101018.00;1757679;81;20964;-43
2021/11/23 03:27:41;;;;;;;6.10;4.25;;;;;;;-0.22;92.24;101026.55;1757691;81;20956;-43
2021/11/23 03:30:10;;;;;;;5.50;4.35;;;;;;;-0.23;92.09;101032.06;1757689;81;20983;-43
2021/11/23 03:32:39;;;;;;;7.12;4.10;;;;;;;-0.25;91.97;101041.72;1758127;81;20983;-42
2021/11/23 03:35:07;;;;;;;6.20;3.95;;;;;;;-0.27;91.95;101040.37;1757918;81;21949;-42
2021/11/23 03:37:36;;;;;;;4.85;4.33;;;;;;;-0.28;91.93;101042.89;1757729;81;20884;-44
2021/11/23 03:40:05;;;;;;;5.33;4.25;;;;;;;-0.28;91.91;101039.92;1757756;81;20996;-43
2021/11/23 03:42:32;;;;;;;7.35;3.70;;;;;;;-0.28;91.81;101041.19;1757659;81;21450;-44
2021/11/23 03:45:00;;;;;;;11.70;4.55;;;;;;;-0.30;91.74;101041.16;1757751;81;20932;-43
2021/11/23 03:47:29;;;;;;;7.05;4.53;;;;;;;-0.30;91.76;101036.06;1729889;81;21080;-44
2021/11/23 03:49:58;;;;;;;5.47;4.00;;;;;;;-0.30;91.72;101021.19;1757611;81;20936;-44
2021/11/23 03:52:25;;;;;;;7.22;4.67;;;;;;;-0.29;91.63;101017.83;1729793;81;20944;-44
2021/11/23 03:54:51;;;;;;;6.47;4.22;;;;;;;-0.27;91.60;101022.98;1757637;81;21194;-44
2021/11/23 03:57:18;;;;;;;12.43;4.47;;;;;;;-0.28;91.57;101026.34;1757797;81;20888;-43
2021/11/23 03:59:47;;;;;;;7.28;3.92;;;;;;;-0.30;91.59;101023.73;1757690;81;21191;-43
2021/11/23 04:02:16;;;;;;;8.05;4.25;;;;;;;-0.29;91.55;101019.10;1757599;81;20985;-43
2021/11/23 04:04:43;;;;;;;8.13;4.42;;;;;;;-0.29;91.56;101029.28;1757825;81;21473;-43
2021/11/23 04:07:12;;;;;;;8.83;5.33;;;;;;;-0.30;91.55;101036.45;1751156;81;21454;-42
2021/11/23 04:09:38;;;;;;;6.67;4.50;;;;;;;-0.33;91.55;101030.88;1749760;82;20965;-42
2021/11/23 04:12:08;;;;;;;8.60;4.58;;;;;;;-0.35;91.54;101036.70;1749831;82;20984;-43
2021/11/23 04:14:36;;;;;;;7.92;4.20;;;;;;;-0.35;91.55;101038.86;1749916;82;21450;-45
2021/11/23 04:17:04;;;;;;;67.32;5.33;;;;;;;-0.36;91.60;101043.48;1749980;82;21079;-43
2021/11/23 04:19:31;;;;;;;14.00;4.25;;;;;;;-0.39;91.66;101030.63;1749880;80;20909;-42
2021/11/23 04:21:59;;;;;;;8.85;4.20;;;;;;;-0.39;91.73;101035.72;1750038;82;20884;-43
2021/11/23 04:24:26;;;;;;;10.35;4.55;;;;;;;-0.38;91.74;101046.39;1749885;81;21090;-43
2021/11/23 04:26:53;;;;;;;6.72;4.40;;;;;;;-0.40;91.70;101049.25;1749994;82;20896;-44
2021/11/23 04:29:20;;;;;;;10.10;4.60;;;;;;;-0.42;91.68;101054.69;1749766;81;21498;-43
2021/11/23 04:31:47;;;;;;;6.22;4.25;;;;;;;-0.46;91.72;101055.40;1749945;82;20976;-44
2021/11/23 04:34:15;;;;;;;10.00;4.20;;;;;;;-0.49;91.75;101054.02;1750082;82;20979;-44
2021/11/23 04:36:42;;;;;;;5.97;4.53;;;;;;;-0.51;91.73;101049.28;1749917;80;21198;-43
2021/11/23 04:39:11;;;;;;;6.00;4.35;;;;;;;-0.51;91.75;101056.91;1749932;82;20984;-43
2021/11/23 04:41:39;;;;;;;5.70;4.42;;;;;;;-0.52;91.79;101060.27;1750031;82;21549;-43
2021/11/23 04:44:06;;;;;;;6.22;4.33;;;;;;;-0.53;91.83;101049.63;1750000;82;20905;-43
2021/11/23 04:46:33;;;;;;;5.45;4.42;;;;;;;-0.54;91.86;101057.66;1750040;82;20885;-43
2021/11/23 04:49:00;;;;;;;9.83;4.90;;;;;;;-0.54;91.81;101059.35;1749869;82;21081;-43
2021/11/23 04:51:27;;;;;;;9.58;4.28;;;;;;;-0.55;91.79;101055.08;1721937;82;21019;-43
2021/11/23 04:53:55;;;;;;;4.55;4.03;;;;;;;-0.57;91.77;101046.52;1749929;82;20972;-43
2021/11/23 04:56:22;;;;;;;13.95;4.25;;;;;;;-0.60;91.72;101043.06;1749878;81;20889;-43
2021/11/23 04:58:48;;;;;;;4.72;3.80;;;;;;;-0.59;91.69;101047.72;1749994;82;21431;-43
2021/11/23 05:01:15;;;;;;;6.65;3.67;;;;;;;-0.60;91.60;101062.52;1749945;82;21097;-43
2021/11/23 05:03:43;;;;;;;6.95;3.90;;;;;;;-0.62;91.63;101058.67;1750105;82;20945;-43
2021/11/23 05:06:10;;;;;;;6.85;3.90;;;;;;;-0.63;91.62;101063.69;1750067;81;21608;-43
2021/11/23 05:08:39;;;;;;;8.40;3.87;;;;;;;-0.66;91.59;101065.70;1749862;82;20940;-43
2021/11/23 05:11:09;;;;;;;6.12;3.62;;;;;;;-0.66;91.53;101061.88;1750072;82;21634;-43
2021/11/23 05:13:34;;;;;;;5.62;4.15;;;;;;;-0.66;91.49;101064.84;1749958;80;21507;-43
2021/11/23 05:16:01;;;;;;;5.03;3.80;;;;;;;-0.68;91.48;101068.59;1749874;82;20928;-43
2021/11/23 05:18:29;;;;;;;11.75;4.20;;;;;;;-0.69;91.45;101077.45;1722167;82;20940;-43
2021/11/23 05:20:56;;;;;;;4.72;4.22;;;;;;;-0.70;91.44;101082.08;1750053;82;21007;-43
2021/11/23 05:23:23;;;;;;;5.50;4.42;;;;;;;-0.72;91.44;101080.73;1749971;82;20929;-44
2021/11/23 05:25:51;;;;;;;4.37;3.98;;;;;;;-0.73;91.50;101081.16;1749810;82;21025;-43
2021/11/23 05:28:19;;;;;;;6.05;4.45;;;;;;;-0.74;91.54;101082.36;1749905;82;21544;-43
2021/11/23 05:30:46;;;;;;;5.42;4.22;;;;;;;-0.73;91.61;101094.26;1749941;82;20947;-43
2021/11/23 05:33:13;;;;;;;4.50;3.55;;;;;;;-0.75;91.65;101083.16;1722140;82;20933;-42
2021/11/23 05:35:40;;;;;;;5.10;4.42;;;;;;;-0.75;91.75;101084.44;1749950;81;21470;-42
2021/11/23 05:38:07;;;;;;;5.12;4.60;;;;;;;-0.74;91.81;101086.17;1749758;82;21104;-44
2021/11/23 05:40:34;;;;;;;10.30;3.85;;;;;;;-0.73;91.87;101086.62;1749759;82;21031;-44
2021/11/23 05:43:01;;;;;;;5.67;3.87;;;;;;;-0.72;91.97;101089.63;1749937;82;21061;-44
2021/11/23 05:45:29;;;;;;;7.67;4.45;;;;;;;-0.71;92.03;101087.55;1749995;82;20995;-44
2021/11/23 05:47:56;;;;;;;10.88;4.67;;;;;;;-0.70;92.09;101088.02;1749969;80;20884;-44
2021/11/23 05:50:22;;;;;;;6.95;4.12;;;;;;;-0.67;92.18;101099.56;1749888;82;21194;-43
2021/11/23 05:52:49;;;;;;;6.70;3.67;;;;;;;-0.65;92.20;101103.03;1749609;81;20908;-44
2021/11/23 05:55:16;;;;;;;5.37;4.22;;;;;;;-0.64;92.24;101105.19;1750012;82;20976;-43
2021/11/23 05:57:43;;;;;;;6.25;4.58;;;;;;;-0.62;92.29;101104.84;1749796;82;21490;-43
2021/11/23 06:00:11;;;;;;;5.75;4.47;;;;;;;-0.60;92.35;101104.10;1749930;81;20896;-43
2021/11/23 06:02:38;;;;;;;6.53;4.25;;;;;;;-0.59;92.43;101104.95;1722570;82;21976;-43
2021/11/23 06:05:06;;;;;;;10.50;4.20;;;;;;;-0.59;92.54;101110.92;1749940;82;20929;-43
2021/11/23 06:07:33;;;;;;;8.33;5.42;;;;;;;-0.60;92.57;101110.45;1749758;81;20928;-43
2021/11/23 06:10:00;;;;;;;9.60;4.83;;;;;;;-0.59;92.63;101110.04;1749880;82;20999;-43
2021/11/23 06:12:30;;;;;;;15.53;5.67;;;;;;;-0.57;92.53;101120.28;1749917;82;20936;-43
2021/11/23 06:14:58;;;;;;;9.90;5.42;;;;;;;-0.59;92.35;101118.55;1749806;82;21096;-43
2021/11/23 06:17:27;;;;;;;10.30;5.70;;;;;;;-0.57;92.43;101126.64;1749878;82;20901;-43
2021/11/23 06:22:43;;;;;;;8.53;6.22;;;;;;;-0.50;92.26;101120.97;1798367;79;22495;-42
2021/11/23 06:25:11;;;;;;;14.47;7.22;;;;;;;-0.55;92.26;101121.20;1758273;81;20913;-42
2021/11/23 06:27:38;;;;;;;9.43;6.87;;;;;;;-0.55;92.25;101113.58;1758318;81;21864;-42
2021/11/23 06:30:07;;;;;;;7.10;6.03;;;;;;;-0.51;92.32;101120.51;1758125;81;20912;-42
2021/11/23 06:32:36;;;;;;;10.43;5.72;;;;;;;-0.48;92.26;101118.08;1758092;81;20905;-44
2021/11/23 06:35:04;;;;;;;8.03;5.65;;;;;;;-0.47;92.24;101127.05;1758039;81;20932;-44
2021/11/23 06:37:30;;;;;;;7.87;5.10;;;;;;;-0.45;92.19;101128.36;1720598;81;21462;-44
2021/11/23 06:39:58;;;;;;;9.60;4.95;;;;;;;-0.44;92.04;101126.28;1758179;81;21150;-44
2021/11/23 06:42:25;;;;;;;5.95;4.30;;;;;;;-0.44;91.68;101128.82;1758188;81;20881;-42
2021/11/23 06:44:52;;;;;;;6.10;4.80;;;;;;;-0.45;91.39;101137.27;1758253;81;21418;-43
2021/11/23 06:47:19;;;;;;;4.85;4.05;;;;;;;-0.44;91.41;101142.81;1757929;81;21634;-43
2021/11/23 06:49:46;;;;;;;5.40;4.08;;;;;;;-0.44;91.09;101145.36;1758116;81;20980;-43
2021/11/23 06:52:13;;;;;;;7.00;3.67;;;;;;;-0.44;90.93;101142.81;1721564;82;21790;-44
2021/11/23 06:54:40;;;;;;;7.45;3.58;;;;;;;-0.43;90.87;101149.64;1749769;82;20877;-43
2021/11/23 06:57:07;;;;;;;4.37;3.98;;;;;;;-0.38;90.96;101152.36;1749770;82;20981;-43
2021/11/23 06:59:34;;;;;;;6.15;3.95;;;;;;;-0.35;90.58;101139.36;1749707;82;20975;-43
2021/11/23 07:02:01;;;;;;;5.47;4.10;;;;;;;-0.32;90.56;101142.02;1749718;82;20881;-43
2021/11/23 07:04:28;;;;;;;6.00;4.50;;;;;;;-0.27;90.45;101142.59;1749807;82;21190;-42
2021/11/23 07:06:55;;;;;;;5.65;4.45;;;;;;;-0.26;90.02;101155.35;1749743;82;20849;-44
2021/11/23 07:09:22;;;;;;;6.95;4.67;;;;;;;-0.22;90.26;101162.31;1749867;82;21407;-44
2021/11/23 07:11:49;;;;;;;7.20;4.97;;;;;;;-0.13;90.32;101160.48;1749928;82;20975;-44
2021/11/23 07:14:16;;;;;;;6.85;5.08;;;;;;;-0.06;90.04;101164.13;1720361;82;20963;-44
2021/11/23 07:16:46;;;;;;;9.78;5.53;;;;;;;-0.02;89.46;101165.59;1749701;82;21154;-43
2021/11/23 07:19:14;;;;;;;8.35;4.95;;;;;;;0.00;89.41;101164.38;1749731;82;20928;-44
2021/11/23 07:21:41;;;;;;;8.90;5.25;;;;;;;0.05;89.00;101164.14;1717047;82;20936;-43
2021/11/23 07:24:08;;;;;;;9.28;6.50;;;;;;;0.06;87.68;101178.98;1736495;82;21033;-43
2021/11/23 07:26:37;;;;;;;10.93;9.38;;;;;;;0.04;87.28;101178.95;1715567;82;20956;-43
2021/11/23 07:29:04;;;;;;;10.03;8.00;;;;;;;0.01;86.62;101185.21;1736514;82;21258;-43
2021/11/23 07:31:31;;;;;;;11.70;6.08;;;;;;;0.03;86.60;101177.61;1736616;82;21522;-43
2021/11/23 07:33:59;;;;;;;6.30;4.30;;;;;;;0.07;86.45;101167.60;1736017;82;21036;-43
2021/11/23 07:36:26;;;;;;;9.40;5.83;;;;;;;0.12;86.45;101166.47;1736097;82;21027;-42
2021/11/23 07:38:55;;;;;;;16.32;12.05;;;;;;;0.17;86.61;101173.02;1736012;81;20980;-43
2021/11/23 07:41:22;;;;;;;9.25;6.28;;;;;;;0.23;86.40;101166.86;1735999;82;21156;-43
2021/11/23 07:43:50;;;;;;;16.93;9.43;;;;;;;0.30;86.52;101173.92;1735847;81;20929;-43
2021/11/23 07:46:17;;;;;;;47.78;22.20;;;;;;;0.36;86.26;101174.52;1715134;82;21210;-43
2021/11/23 07:48:44;;;;;;;40.00;22.42;;;;;;;0.39;85.26;101175.51;1736041;82;20925;-43
2021/11/23 07:51:11;;;;;;;22.67;12.40;;;;;;;0.38;85.35;101172.89;1736015;82;20933;-43
2021/11/23 07:53:38;;;;;;;85.62;39.70;;;;;;;0.34;84.80;101172.33;1735960;82;21217;-43
2021/11/23 07:56:05;;;;;;;192.43;82.45;;;;;;;0.30;84.86;101179.41;1736012;82;21444;-43
2021/11/23 07:58:32;;;;;;;140.88;56.85;;;;;;;0.30;85.21;101184.11;1735924;82;20940;-43
2021/11/23 08:00:59;;;;;;;86.37;40.70;;;;;;;0.26;84.98;101189.49;1735864;82;20984;-43
2021/11/23 08:03:26;;;;;;;139.47;62.73;;;;;;;0.22;85.26;101195.30;1736096;82;20980;-43
2021/11/23 08:05:54;;;;;;;143.35;59.73;;;;;;;0.22;85.39;101182.56;1735914;82;21062;-43
2021/11/23 08:08:21;;;;;;;21.45;10.75;;;;;;;0.22;85.18;101190.20;1736045;82;20995;-43
2021/11/23 08:10:48;;;;;;;109.85;40.95;;;;;;;0.20;85.07;101193.09;1736093;82;21016;-43
2021/11/23 08:13:16;;;;;;;8.75;5.78;;;;;;;0.22;85.22;101190.59;1736040;81;20937;-43
2021/11/23 08:15:44;;;;;;;50.92;23.85;;;;;;;0.22;84.96;101190.20;1715294;82;20949;-43
2021/11/23 08:18:12;;;;;;;40.25;19.60;;;;;;;0.20;84.55;101191.83;1714954;82;21048;-43
2021/11/23 08:20:39;;;;;;;45.10;24.80;;;;;;;0.25;84.77;101199.22;1710047;82;21000;-43
2021/11/23 08:23:06;;;;;;;21.10;11.93;;;;;;;0.26;84.54;101194.59;1748953;81;21374;-43
2021/11/23 08:25:33;;;;;;;9.88;7.10;;;;;;;0.31;84.77;101201.52;1750146;82;20916;-43
2021/11/23 08:28:00;;;;;;;14.28;4.83;;;;;;;0.39;85.06;101204.80;1749955;82;20908;-42
2021/11/23 08:30:26;;;;;;;14.63;4.67;;;;;;;0.54;84.83;101203.63;1750074;82;21138;-42
2021/11/23 08:32:55;;;;;;;7.22;5.28;;;;;;;0.64;84.63;101192.06;1749972;82;20983;-42
2021/11/23 08:35:21;;;;;;;7.15;5.17;;;;;;;0.81;84.48;101192.20;1722265;82;20861;-42
2021/11/23 08:37:48;;;;;;;7.75;5.15;;;;;;;0.97;84.15;101195.28;1750067;82;20933;-43
2021/11/23 08:40:16;;;;;;;7.08;4.90;;;;;;;1.12;83.40;101191.93;1749920;81;20944;-42
2021/11/23 08:42:43;;;;;;;7.30;4.97;;;;;;;1.27;82.87;101191.97;1749914;82;21748;-42
2021/11/23 08:45:12;;;;;;;6.62;4.97;;;;;;;1.39;82.37;101191.10;1722804;82;21000;-43
2021/11/23 08:47:40;;;;;;;7.75;5.15;;;;;;;1.51;81.73;101192.28;1749807;81;20948;-43
2021/11/23 08:50:09;;;;;;;9.85;6.03;;;;;;;1.61;81.28;101191.73;1749923;82;20905;-43
2021/11/23 08:52:36;;;;;;;7.12;4.58;;;;;;;1.62;79.41;101184.95;1722543;82;20936;-42
2021/11/23 08:55:05;;;;;;;9.98;4.80;;;;;;;1.68;79.76;101177.47;1749892;81;21056;-42
2021/11/23 08:57:33;;;;;;;6.85;5.33;;;;;;;1.77;79.04;101181.59;1749853;82;20920;-43
2021/11/23 09:00:14;;;;;;;4.00;3.40;;;;;;;1.80;77.22;101176.97;1749657;80;20980;-43
2021/11/23 09:02:42;;;;;;;8.05;3.02;;;;;;;1.74;75.11;101187.01;1747246;81;21522;-43
2021/11/23 09:05:11;;;;;;;8.95;3.25;;;;;;;1.69;73.17;101179.20;1722130;82;20841;-43
2021/11/23 09:07:38;;;;;;;3.37;3.08;;;;;;;1.57;72.11;101180.98;1750040;80;21159;-43
2021/11/23 09:10:09;;;;;;;3.70;2.95;;;;;;;1.49;72.62;101176.91;1749911;82;20976;-43
2021/11/23 09:12:36;;;;;;;7.42;3.60;;;;;;;1.44;72.10;101183.56;1749991;82;20996;-43
2021/11/23 09:15:02;;;;;;;4.42;2.83;;;;;;;1.37;72.75;101174.84;1749974;80;20984;-43
2021/11/23 09:17:30;;;;;;;4.42;3.35;;;;;;;1.36;73.08;101179.49;1750017;82;21451;-45
2021/11/23 09:19:57;;;;;;;4.25;3.67;;;;;;;1.32;73.56;101171.30;1750111;82;21130;-43
2021/11/23 09:22:24;;;;;;;7.17;3.17;;;;;;;1.33;74.28;101173.03;1742778;82;20909;-43
2021/11/23 09:24:51;;;;;;;3.90;3.52;;;;;;;1.41;74.46;101182.20;1735909;82;20989;-44
2021/11/23 09:27:18;;;;;;;5.95;3.58;;;;;;;1.42;74.55;101175.87;1735910;82;21474;-43
2021/11/23 09:29:45;;;;;;;5.15;4.47;;;;;;;1.43;75.22;101176.34;1735972;82;20854;-43
2021/11/23 09:32:13;;;;;;;4.67;4.17;;;;;;;1.50;75.49;101177.36;1736007;82;21083;-43
2021/11/23 09:34:40;;;;;;;8.63;4.67;;;;;;;1.65;74.79;101168.45;1736023;82;21402;-43
2021/11/23 09:37:08;;;;;;;25.77;11.93;;;;;;;1.67;74.03;101171.91;1735916;82;20929;-43
2021/11/23 09:39:35;;;;;;;56.45;21.97;;;;;;;1.71;73.58;101168.23;1736164;82;20894;-43
2021/11/23 09:42:02;;;;;;;36.93;14.65;;;;;;;1.77;72.56;101171.78;1735920;82;20889;-43
2021/11/23 09:44:29;;;;;;;15.90;8.10;;;;;;;1.74;70.78;101166.16;1715064;82;21910;-42
2021/11/23 09:46:55;;;;;;;21.73;10.60;;;;;;;1.60;69.32;101158.52;1715125;82;20921;-42
2021/11/23 09:49:22;;;;;;;9.65;6.03;;;;;;;1.60;69.14;101161.92;1735990;82;20972;-42
2021/11/23 09:51:50;;;;;;;29.52;12.88;;;;;;;1.70;69.10;101163.95;1735843;82;20949;-43
2021/11/23 09:54:16;;;;;;;67.53;27.45;;;;;;;1.72;68.12;101159.75;1735985;82;20952;-42
2021/11/23 09:56:46;;;;;;;61.33;24.07;;;;;;;1.68;69.01;101159.20;1714969;82;21037;-42
2021/11/23 09:59:12;;;;;;;62.78;23.25;;;;;;;1.67;68.06;101161.31;1735938;82;21502;-43
2021/11/23 10:01:54;;;;;;;73.90;29.52;;;;;;;1.60;68.63;101155.55;1736051;82;20905;-42
2021/11/23 10:04:24;;;;;;;40.28;16.85;;;;;;;1.52;68.40;101155.34;1736094;82;21398;-43
2021/11/23 10:07:00;;;;;;;16.95;7.30;;;;;;;1.34;68.56;101149.67;1735802;82;20941;-43
2021/11/23 10:09:37;;;;;;;38.90;16.37;;;;;;;1.25;68.89;101154.92;1715013;82;21070;-43
2021/11/23 10:12:24;;;;;;;36.42;16.82;;;;;;;1.19;69.76;101150.06;1735749;81;20885;-43
2021/11/23 10:15:25;;;;;;;116.45;46.92;;;;;;;1.12;69.66;101146.02;1736120;81;20890;-43
2021/11/23 10:17:55;;;;;;;42.00;18.12;;;;;;;1.07;70.53;101152.67;1705418;84;21068;-42
2021/11/23 10:20:31;;;;;;;25.77;12.53;;;;;;;1.07;70.61;101148.84;1709168;83;20916;-43
2021/11/23 10:23:12;;;;;;;87.85;36.55;;;;;;;1.04;71.01;101153.00;1697136;81;21032;-44
2021/11/23 10:25:40;;;;;;;32.90;16.73;;;;;;;1.08;71.42;101149.72;1735814;81;20918;-44
2021/11/23 10:28:08;;;;;;;13.70;9.10;;;;;;;1.23;71.61;101150.61;1735877;82;20984;-43
2021/11/23 10:30:39;;;;;;;44.20;17.82;;;;;;;1.41;70.58;101146.48;1735881;82;21020;-43
2021/11/23 10:33:06;;;;;;;30.77;10.13;;;;;;;1.48;71.05;101136.05;1715089;82;22246;-44
2021/11/23 10:35:33;;;;;;;39.18;18.23;;;;;;;1.45;70.72;101139.79;1735854;82;21139;-43
2021/11/23 10:37:59;;;;;;;11.40;5.78;;;;;;;1.48;71.49;101141.16;1735870;82;21542;-44
2021/11/23 10:40:30;;;;;;;15.40;8.70;;;;;;;1.48;70.79;101140.73;1735943;82;21003;-44
2021/11/23 10:42:59;;;;;;;7.40;3.80;;;;;;;1.45;68.76;101137.23;1735734;82;22161;-44
2021/11/23 10:45:37;;;;;;;5.28;4.72;;;;;;;1.40;68.04;101140.92;1735810;82;20914;-44
2021/11/23 10:48:05;;;;;;;5.45;2.83;;;;;;;1.43;67.76;101146.99;1735288;82;21159;-44
2021/11/23 10:50:32;;;;;;;3.40;3.10;;;;;;;1.46;66.61;101138.97;1686123;82;20921;-43
2021/11/23 10:53:15;;;;;;;2.92;2.70;;;;;;;1.43;65.96;101134.23;1735904;82;20902;-44
2021/11/23 10:55:44;;;;;;;2.83;2.62;;;;;;;1.38;66.60;101138.31;1736009;82;20925;-42
2021/11/23 10:58:12;;;;;;;10.65;2.17;;;;;;;1.45;64.68;101130.44;1735958;82;21534;-43
2021/11/23 11:00:43;;;;;;;3.12;2.17;;;;;;;1.57;63.31;101136.31;1735937;82;21152;-43
2021/11/23 11:03:12;;;;;;;5.15;2.25;;;;;;;1.58;61.54;101141.48;1735766;81;20894;-43
2021/11/23 11:05:43;;;;;;;11.60;2.55;;;;;;;1.58;61.20;101138.05;1735944;82;20925;-43
2021/11/23 11:08:10;;;;;;;6.22;1.85;;;;;;;1.64;60.70;101135.70;1736161;82;20897;-42
2021/11/23 11:10:39;;;;;;;2.60;2.22;;;;;;;1.76;58.58;101130.05;1735954;82;20984;-43
2021/11/23 11:13:09;;;;;;;3.40;2.40;;;;;;;1.84;59.12;101131.55;1736027;81;21038;-43
2021/11/23 11:15:42;;;;;;;16.60;2.83;;;;;;;1.86;59.10;101129.51;1736066;82;20923;-42
